Time;durP1;ratioP1;P1;durP2;ratioP2;P2;SDS_P1;SDS_P2;PMS_P1;PMS_P2;Temp;Humidity;BMP_temperature;BMP_pressure;BME280_temperature;BME280_humidity;BME280_pressure;Samples;Min_cycle;Max_cycle;Signal;HPM_P1;HPM_P2
2022/06/10 00:01:25;;;;;;;5.45;4.20;;;;;;;;;;10274645;28;20045;-61
2022/06/10 00:06:23;;;;;;;6.00;4.00;;;;;;;;;;10275465;28;20084;-62
2022/06/10 00:11:21;;;;;;;8.50;4.78;;;;;;;;;;10274771;28;20045;-61
2022/06/10 00:16:21;;;;;;;6.50;4.68;;;;;;;;;;10274757;28;20041;-62
2022/06/10 00:21:22;;;;;;;9.57;5.32;;;;;;;;;;10274279;28;20057;-62
2022/06/10 00:26:20;;;;;;;5.72;4.78;;;;;;;;;;10274917;28;20510;-62
2022/06/10 00:31:19;;;;;;;6.40;4.82;;;;;;;;;;10274618;28;20049;-61
2022/06/10 00:36:23;;;;;;;6.82;5.63;;;;;;;;;;10274455;28;20136;-62
2022/06/10 00:41:21;;;;;;;6.65;5.88;;;;;;;;;;10274112;28;20049;-62
2022/06/10 00:46:31;;;;;;;6.30;5.70;;;;;;;;;;10287922;28;20073;-61
2022/06/10 00:51:33;;;;;;;7.70;5.47;;;;;;;;;;10274191;28;20044;-61
2022/06/10 00:56:32;;;;;;;7.57;4.80;;;;;;;;;;10274180;28;20073;-61
2022/06/10 01:01:31;;;;;;;4.72;4.32;;;;;;;;;;10280393;28;20052;-61
2022/06/10 01:06:29;;;;;;;4.57;3.90;;;;;;;;;;10281025;28;20073;-60
2022/06/10 01:11:46;;;;;;;5.35;4.85;;;;;;;;;;10280915;28;20048;-61
2022/06/10 01:16:48;;;;;;;6.90;5.13;;;;;;;;;;10280749;28;20183;-61
2022/06/10 01:21:56;;;;;;;4.75;4.35;;;;;;;;;;10280180;28;20060;-61
2022/06/10 01:32:44;;;;;;;4.88;4.47;;;;;;;;;;10252561;28;20057;-62
2022/06/10 01:37:48;;;;;;;5.88;4.82;;;;;;;;;;10280347;28;20056;-62
2022/06/10 01:42:49;;;;;;;5.70;5.00;;;;;;;;;;10280089;28;20083;-61
2022/06/10 01:47:52;;;;;;;5.60;4.80;;;;;;;;;;10279805;28;20084;-62
2022/06/10 01:52:53;;;;;;;7.15;4.70;;;;;;;;;;10280072;28;20083;-61
2022/06/10 01:57:54;;;;;;;6.20;5.15;;;;;;;;;;10279433;28;20060;-61
2022/06/10 02:02:57;;;;;;;6.07;5.47;;;;;;;;;;10279353;28;20080;-59
2022/06/10 02:07:59;;;;;;;12.65;5.38;;;;;;;;;;10279145;28;20083;-61
2022/06/10 02:12:59;;;;;;;6.60;5.57;;;;;;;;;;10278654;28;20498;-62
2022/06/10 02:18:01;;;;;;;6.28;5.68;;;;;;;;;;10277814;28;20045;-62
2022/06/10 02:23:02;;;;;;;6.63;5.22;;;;;;;;;;10277876;28;20049;-63
2022/06/10 02:28:05;;;;;;;5.93;5.43;;;;;;;;;;10278258;28;20065;-62
2022/06/10 02:33:06;;;;;;;9.77;7.13;;;;;;;;;;10277327;28;20068;-61
2022/06/10 02:38:09;;;;;;;6.78;6.07;;;;;;;;;;10278238;28;20545;-62
2022/06/10 02:43:12;;;;;;;8.80;6.47;;;;;;;;;;10277934;28;20401;-61
2022/06/10 02:48:17;;;;;;;9.18;7.00;;;;;;;;;;10277482;28;20045;-62
2022/06/10 02:53:15;;;;;;;7.85;7.15;;;;;;;;;;10277604;28;20041;-62
2022/06/10 03:03:34;;;;;;;11.45;7.63;;;;;;;;;;10277374;28;20057;-62
2022/06/10 03:08:35;;;;;;;10.00;7.75;;;;;;;;;;10276817;28;20258;-62
2022/06/10 03:13:36;;;;;;;12.63;8.27;;;;;;;;;;10276716;28;20064;-62
2022/06/10 03:18:41;;;;;;;14.18;8.00;;;;;;;;;;10276780;28;20049;-62
2022/06/10 03:23:44;;;;;;;8.75;7.38;;;;;;;;;;10275366;28;20057;-61
2022/06/10 03:28:48;;;;;;;14.05;10.90;;;;;;;;;;10276479;28;20083;-62
2022/06/10 03:33:50;;;;;;;14.18;9.68;;;;;;;;;;10276497;28;20048;-63
2022/06/10 03:38:50;;;;;;;12.82;11.02;;;;;;;;;;10276209;28;20072;-62
2022/06/10 03:43:49;;;;;;;15.18;12.32;;;;;;;;;;10274055;28;20044;-62
2022/06/10 03:48:50;;;;;;;12.65;11.43;;;;;;;;;;10275952;28;20056;-62
2022/06/10 03:53:48;;;;;;;12.85;11.55;;;;;;;;;;10275893;28;20099;-62
2022/06/10 03:58:47;;;;;;;13.73;12.30;;;;;;;;;;10275846;28;20056;-63
2022/06/10 04:03:45;;;;;;;14.30;12.77;;;;;;;;;;10276010;28;20045;-62
2022/06/10 04:08:45;;;;;;;18.83;14.00;;;;;;;;;;10275462;28;20076;-62
2022/06/10 04:13:44;;;;;;;25.42;21.23;;;;;;;;;;10275556;28;20544;-62
2022/06/10 04:18:42;;;;;;;27.20;18.48;;;;;;;;;;10274474;28;20065;-62
2022/06/10 04:23:40;;;;;;;18.40;15.25;;;;;;;;;;10274806;28;20061;-62
2022/06/10 04:28:40;;;;;;;26.83;19.95;;;;;;;;;;10275298;28;20076;-63
2022/06/10 04:33:39;;;;;;;19.25;17.00;;;;;;;;;;10279096;28;20091;-62
2022/06/10 04:38:37;;;;;;;27.48;23.60;;;;;;;;;;10281627;28;20454;-61
2022/06/10 04:43:35;;;;;;;23.77;18.42;;;;;;;;;;10282565;28;20072;-62
2022/06/10 04:48:35;;;;;;;21.38;16.60;;;;;;;;;;10281829;28;20072;-62
2022/06/10 04:53:34;;;;;;;21.38;17.67;;;;;;;;;;10303560;28;20084;-61
2022/06/10 04:58:34;;;;;;;22.67;19.00;;;;;;;;;;10301490;28;20051;-63
2022/06/10 05:03:32;;;;;;;21.77;19.58;;;;;;;;;;10317578;28;20044;-63
2022/06/10 05:08:32;;;;;;;20.80;18.60;;;;;;;;;;10322117;28;20067;-63
2022/06/10 05:13:30;;;;;;;21.45;19.25;;;;;;;;;;10322225;28;20076;-62
2022/06/10 05:18:29;;;;;;;22.20;19.10;;;;;;;;;;10320980;28;20068;-61
2022/06/10 05:23:27;;;;;;;19.70;17.83;;;;;;;;;;10319373;28;20056;-61
2022/06/10 05:28:27;;;;;;;19.30;17.55;;;;;;;;;;10295845;28;20072;-62
2022/06/10 05:34:44;;;;;;;18.98;17.15;;;;;;;;;;10300655;28;20171;-61
2022/06/10 05:38:44;;;;;;;17.23;15.63;;;;;;;;;;10316313;28;20064;-61
2022/06/10 05:43:43;;;;;;;17.27;15.52;;;;;;;;;;10313104;28;20075;-61
2022/06/10 05:48:42;;;;;;;19.25;16.88;;;;;;;;;;10313512;28;20481;-62
2022/06/10 05:53:40;;;;;;;19.10;17.27;;;;;;;;;;10312860;28;20182;-62
2022/06/10 05:58:39;;;;;;;17.80;16.10;;;;;;;;;;10312757;28;20612;-63
2022/06/10 06:03:38;;;;;;;17.45;15.43;;;;;;;;;;10319116;28;20033;-61
2022/06/10 06:08:37;;;;;;;15.77;14.32;;;;;;;;;;10319983;28;20500;-62
2022/06/10 06:13:35;;;;;;;16.35;14.75;;;;;;;;;;10320227;28;20036;-61
2022/06/10 06:18:34;;;;;;;18.38;16.67;;;;;;;;;;10320050;28;20051;-62
2022/06/10 06:23:33;;;;;;;17.77;16.23;;;;;;;;;;10319026;28;20056;-61
2022/06/10 06:28:32;;;;;;;19.83;17.90;;;;;;;;;;10319430;28;20103;-62
2022/06/10 06:33:30;;;;;;;18.48;16.88;;;;;;;;;;10319111;28;20064;-61
2022/06/10 06:38:29;;;;;;;19.52;17.65;;;;;;;;;;10319005;28;20041;-62
2022/06/10 06:43:29;;;;;;;20.23;18.23;;;;;;;;;;10318902;28;20036;-62
2022/06/10 06:48:27;;;;;;;19.88;17.65;;;;;;;;;;10318681;28;20495;-61
2022/06/10 06:53:25;;;;;;;19.67;17.10;;;;;;;;;;10318429;28;20433;-61
2022/06/10 06:58:24;;;;;;;19.45;17.48;;;;;;;;;;10318257;28;20049;-62
2022/06/10 07:03:24;;;;;;;20.05;18.15;;;;;;;;;;10317965;28;20076;-62
2022/06/10 07:08:25;;;;;;;18.88;17.05;;;;;;;;;;10317717;28;20091;-62
2022/06/10 07:13:23;;;;;;;17.40;15.80;;;;;;;;;;10317521;28;20064;-63
2022/06/10 07:18:22;;;;;;;30.05;18.65;;;;;;;;;;10316481;28;20083;-63
2022/06/10 07:23:22;;;;;;;17.17;15.48;;;;;;;;;;10316106;28;20068;-62
2022/06/10 07:28:21;;;;;;;16.30;14.60;;;;;;;;;;10317109;28;20048;-62
2022/06/10 07:33:21;;;;;;;15.98;14.52;;;;;;;;;;10316878;28;20056;-62
2022/06/10 07:38:19;;;;;;;15.75;14.35;;;;;;;;;;10315123;28;20714;-61
2022/06/10 07:43:19;;;;;;;15.88;14.40;;;;;;;;;;10316723;28;20049;-62
2022/06/10 07:48:18;;;;;;;15.65;14.07;;;;;;;;;;10316742;28;20083;-63
2022/06/10 07:53:18;;;;;;;14.75;13.23;;;;;;;;;;10314654;28;20048;-61
2022/06/10 07:58:18;;;;;;;12.85;11.68;;;;;;;;;;10316574;28;20421;-62
2022/06/10 08:03:18;;;;;;;13.07;11.98;;;;;;;;;;10316168;28;20052;-62
2022/06/10 08:08:18;;;;;;;13.88;12.57;;;;;;;;;;10319845;28;20071;-62
2022/06/10 08:13:17;;;;;;;11.77;10.65;;;;;;;;;;10324415;28;20379;-61
2022/06/10 08:18:16;;;;;;;12.40;9.98;;;;;;;;;;10324144;28;20096;-61
2022/06/10 08:23:16;;;;;;;11.32;9.77;;;;;;;;;;10323565;28;20095;-61
2022/06/10 08:28:15;;;;;;;10.57;9.48;;;;;;;;;;10312391;28;20102;-61
2022/06/10 08:33:14;;;;;;;13.63;10.25;;;;;;;;;;10283051;28;20482;-61
2022/06/10 08:38:13;;;;;;;12.55;11.20;;;;;;;;;;10282899;28;20041;-61
2022/06/10 08:43:19;;;;;;;12.88;11.77;;;;;;;;;;10287731;28;20442;-62
2022/06/10 08:48:21;;;;;;;10.95;10.02;;;;;;;;;;10290395;28;20072;-61
2022/06/10 08:53:27;;;;;;;12.70;9.25;;;;;;;;;;10282369;28;20048;-63
2022/06/10 08:58:28;;;;;;;10.27;9.27;;;;;;;;;;10282416;28;20049;-62
2022/06/10 09:03:31;;;;;;;11.00;8.00;;;;;;;;;;10282414;28;20093;-62
2022/06/10 09:08:32;;;;;;;9.07;8.27;;;;;;;;;;10281747;28;20091;-62
2022/06/10 09:13:35;;;;;;;8.82;6.93;;;;;;;;;;10281041;28;20057;-62
2022/06/10 09:18:40;;;;;;;9.35;6.10;;;;;;;;;;10280514;28;20048;-62
2022/06/10 09:23:40;;;;;;;5.57;4.75;;;;;;;;;;10280744;28;20076;-62
2022/06/10 09:28:40;;;;;;;5.88;4.72;;;;;;;;;;10281139;28;20049;-62
2022/06/10 09:33:42;;;;;;;8.95;4.97;;;;;;;;;;10280775;28;20048;-62
2022/06/10 09:38:43;;;;;;;7.28;4.70;;;;;;;;;;10280544;28;20041;-62
2022/06/10 09:43:54;;;;;;;5.50;5.00;;;;;;;;;;10280622;28;20079;-62
2022/06/10 09:49:11;;;;;;;5.00;4.50;;;;;;;;;;10278798;28;20422;-62
2022/06/10 09:54:17;;;;;;;5.53;4.90;;;;;;;;;;10279278;28;20052;-62
2022/06/10 09:59:22;;;;;;;8.95;3.78;;;;;;;;;;10279052;28;20048;-62
2022/06/10 10:04:34;;;;;;;6.72;4.50;;;;;;;;;;10279037;28;20087;-62
2022/06/10 10:09:38;;;;;;;8.10;4.55;;;;;;;;;;10278965;28;20080;-63
2022/06/10 10:14:45;;;;;;;6.18;3.78;;;;;;;;;;10278660;28;20088;-63
2022/06/10 10:19:50;;;;;;;7.38;4.50;;;;;;;;;;10278020;28;20083;-62
2022/06/10 10:24:48;;;;;;;9.82;5.25;;;;;;;;;;10278332;28;20052;-62
2022/06/10 10:29:51;;;;;;;5.80;5.20;;;;;;;;;;10277562;28;20075;-62
2022/06/10 10:34:52;;;;;;;4.93;4.53;;;;;;;;;;10277972;28;20044;-62
2022/06/10 10:39:52;;;;;;;6.97;6.25;;;;;;;;;;10278285;28;20048;-62
2022/06/10 10:44:58;;;;;;;6.38;5.72;;;;;;;;;;10277220;28;20047;-62
2022/06/10 10:50:10;;;;;;;5.45;4.88;;;;;;;;;;10277185;28;20077;-62
2022/06/10 10:55:20;;;;;;;12.13;6.63;;;;;;;;;;10277108;28;20045;-62
2022/06/10 11:00:31;;;;;;;8.38;5.90;;;;;;;;;;10276885;28;20450;-62
2022/06/10 11:05:34;;;;;;;6.68;6.07;;;;;;;;;;10276920;28;20040;-62
2022/06/10 11:10:34;;;;;;;8.48;5.25;;;;;;;;;;10276182;28;20072;-62
2022/06/10 11:15:35;;;;;;;6.72;4.78;;;;;;;;;;10276542;28;20049;-61
2022/06/10 11:20:34;;;;;;;10.68;5.47;;;;;;;;;;10276324;28;20048;-62
2022/06/10 11:25:38;;;;;;;6.25;5.15;;;;;;;;;;10275784;28;20045;-61
2022/06/10 11:30:42;;;;;;;4.93;4.35;;;;;;;;;;10275865;28;20088;-62
2022/06/10 11:35:42;;;;;;;8.88;5.72;;;;;;;;;;10276538;28;20087;-63
2022/06/10 11:40:43;;;;;;;7.05;4.80;;;;;;;;;;10273993;28;20049;-62
2022/06/10 11:45:45;;;;;;;8.25;5.45;;;;;;;;;;10275273;28;20439;-61
2022/06/10 11:50:48;;;;;;;8.10;4.57;;;;;;;;;;10275899;28;20486;-62
2022/06/10 11:55:49;;;;;;;4.28;3.92;;;;;;;;;;10275571;28;20052;-62
2022/06/10 12:00:51;;;;;;;8.32;5.15;;;;;;;;;;10275629;28;20102;-61
2022/06/10 12:05:53;;;;;;;5.03;4.47;;;;;;;;;;10275537;28;20045;-61
2022/06/10 12:10:55;;;;;;;7.25;5.47;;;;;;;;;;10275163;28;20103;-62
2022/06/10 12:15:56;;;;;;;7.65;4.55;;;;;;;;;;10275646;28;20053;-62
2022/06/10 12:20:57;;;;;;;8.63;6.05;;;;;;;;;;10274850;28;20080;-62
2022/06/10 12:26:00;;;;;;;6.30;5.60;;;;;;;;;;10275060;28;20501;-62
2022/06/10 12:31:02;;;;;;;6.05;5.18;;;;;;;;;;10275738;28;20076;-62
2022/06/10 12:36:01;;;;;;;6.07;5.40;;;;;;;;;;10275134;28;20052;-62
2022/06/10 12:41:03;;;;;;;4.93;4.53;;;;;;;;;;10274552;28;20064;-62
2022/06/10 12:46:04;;;;;;;6.80;5.72;;;;;;;;;;10274708;28;20084;-62
2022/06/10 12:51:05;;;;;;;8.43;5.90;;;;;;;;;;10274917;28;20087;-62
2022/06/10 12:56:18;;;;;;;9.93;7.00;;;;;;;;;;10280337;28;20541;-62
2022/06/10 13:01:22;;;;;;;9.43;8.43;;;;;;;;;;10281754;28;20392;-62
2022/06/10 13:06:25;;;;;;;7.18;6.47;;;;;;;;;;10281264;28;20056;-62
2022/06/10 13:11:41;;;;;;;10.23;8.23;;;;;;;;;;10281509;28;20531;-63
2022/06/10 13:16:42;;;;;;;10.85;9.80;;;;;;;;;;10281646;28;20048;-63
2022/06/10 13:21:41;;;;;;;9.98;9.07;;;;;;;;;;10279498;28;20106;-63
2022/06/10 13:26:40;;;;;;;9.70;8.90;;;;;;;;;;10280466;28;20076;-64
2022/06/10 13:31:47;;;;;;;11.10;10.13;;;;;;;;;;10280938;28;20064;-63
2022/06/10 13:36:49;;;;;;;10.65;9.75;;;;;;;;;;10280424;28;20041;-63
2022/06/10 13:41:52;;;;;;;8.52;7.72;;;;;;;;;;10279944;28;20049;-62
2022/06/10 13:46:52;;;;;;;7.18;6.57;;;;;;;;;;10279271;28;20422;-62
2022/06/10 13:51:52;;;;;;;5.22;4.82;;;;;;;;;;10279606;28;20080;-63
2022/06/10 13:56:51;;;;;;;9.05;8.23;;;;;;;;;;10279186;28;20080;-62
2022/06/10 14:01:51;;;;;;;4.55;4.25;;;;;;;;;;10279562;28;20049;-62
2022/06/10 14:06:52;;;;;;;4.35;4.03;;;;;;;;;;10278935;28;20049;-63
2022/06/10 14:12:02;;;;;;;5.28;4.43;;;;;;;;;;10279029;28;20099;-63
2022/06/10 14:17:02;;;;;;;6.13;4.28;;;;;;;;;;10279087;28;20052;-63
2022/06/10 14:22:01;;;;;;;7.82;4.38;;;;;;;;;;10278422;28;20107;-63
2022/06/10 14:27:04;;;;;;;5.50;4.30;;;;;;;;;;10278449;28;20063;-64
2022/06/10 14:32:15;;;;;;;4.90;4.50;;;;;;;;;;10277142;28;20056;-63
2022/06/10 14:37:25;;;;;;;8.75;5.20;;;;;;;;;;10277467;28;20498;-62
2022/06/10 14:42:24;;;;;;;5.13;4.72;;;;;;;;;;10278159;28;20052;-62
2022/06/10 14:47:24;;;;;;;5.95;5.32;;;;;;;;;;10277706;28;20049;-63
2022/06/10 14:52:26;;;;;;;4.85;3.72;;;;;;;;;;10277630;28;20099;-62
2022/06/10 14:57:26;;;;;;;6.38;4.50;;;;;;;;;;10277352;28;20053;-61
2022/06/10 15:02:24;;;;;;;6.95;4.80;;;;;;;;;;10277237;28;20060;-62
2022/06/10 15:07:23;;;;;;;7.68;3.90;;;;;;;;;;10277046;28;20057;-62
2022/06/10 15:12:24;;;;;;;4.43;3.80;;;;;;;;;;10276551;28;20080;-63
2022/06/10 15:17:23;;;;;;;6.20;4.68;;;;;;;;;;10275888;28;20076;-62
2022/06/10 15:22:23;;;;;;;4.53;3.50;;;;;;;;;;10276028;28;20120;-61
2022/06/10 15:27:23;;;;;;;4.63;3.85;;;;;;;;;;10276439;28;20487;-61
2022/06/10 15:32:21;;;;;;;6.07;3.83;;;;;;;;;;10276258;28;20072;-61
2022/06/10 15:42:37;;;;;;;6.07;5.50;;;;;;;;;;10276217;28;20048;-62
2022/06/10 15:47:35;;;;;;;4.55;4.10;;;;;;;;;;10275997;28;20052;-61
2022/06/10 15:52:36;;;;;;;5.38;4.00;;;;;;;;;;10275835;28;20069;-61
2022/06/10 15:57:35;;;;;;;10.50;4.03;;;;;;;;;;10275854;28;20498;-61
2022/06/10 16:02:42;;;;;;;4.15;3.80;;;;;;;;;;10275757;28;20048;-61
2022/06/10 16:07:40;;;;;;;5.32;3.60;;;;;;;;;;10275729;28;20097;-61
2022/06/10 16:17:57;;;;;;;6.80;6.20;;;;;;;;;;10275999;28;20049;-62
2022/06/10 16:22:55;;;;;;;4.15;3.75;;;;;;;;;;10275230;28;20053;-59
2022/06/10 16:27:56;;;;;;;4.10;3.70;;;;;;;;;;10276497;28;20506;-60
2022/06/10 16:32:56;;;;;;;4.18;3.78;;;;;;;;;;10283372;28;20079;-62
2022/06/10 16:37:57;;;;;;;7.35;3.42;;;;;;;;;;10283188;28;20045;-60
2022/06/10 16:42:55;;;;;;;7.53;4.32;;;;;;;;;;10283212;28;20045;-61
2022/06/10 16:47:54;;;;;;;4.35;3.22;;;;;;;;;;10282696;28;20051;-61
2022/06/10 16:52:54;;;;;;;5.80;3.60;;;;;;;;;;10282531;28;20107;-62
2022/06/10 16:57:54;;;;;;;10.02;3.97;;;;;;;;;;10282195;28;20048;-62
2022/06/10 17:02:54;;;;;;;5.32;3.92;;;;;;;;;;10282175;28;20045;-62
2022/06/10 17:07:54;;;;;;;5.20;3.88;;;;;;;;;;10281888;28;20254;-61
2022/06/10 17:12:55;;;;;;;5.43;4.30;;;;;;;;;;10281481;28;20083;-60
2022/06/10 17:17:54;;;;;;;4.90;3.30;;;;;;;;;;10281492;28;20056;-61
2022/06/10 17:22:54;;;;;;;3.58;3.28;;;;;;;;;;10280576;28;20511;-61
2022/06/10 17:27:52;;;;;;;4.38;3.00;;;;;;;;;;10281044;28;20049;-61
2022/06/10 17:32:51;;;;;;;3.20;2.90;;;;;;;;;;10280774;28;20084;-61
2022/06/10 17:37:49;;;;;;;4.38;3.97;;;;;;;;;;10280320;28;20079;-61
2022/06/10 17:42:50;;;;;;;4.60;4.10;;;;;;;;;;10279761;28;20052;-62
2022/06/10 17:47:48;;;;;;;8.50;3.40;;;;;;;;;;10280522;28;20045;-61
2022/06/10 17:52:47;;;;;;;8.55;3.80;;;;;;;;;;10279330;28;20080;-61
2022/06/10 17:57:47;;;;;;;4.43;4.03;;;;;;;;;;10280047;28;20052;-61
2022/06/10 18:02:48;;;;;;;5.55;3.90;;;;;;;;;;10280075;28;20505;-61
2022/06/10 18:08:02;;;;;;;6.90;4.38;;;;;;;;;;10279725;28;20049;-61
2022/06/10 18:18:16;;;;;;;6.80;4.22;;;;;;;;;;10279195;28;20049;-62
2022/06/10 18:23:20;;;;;;;5.60;4.15;;;;;;;;;;10278407;28;20091;-62
2022/06/10 18:28:19;;;;;;;4.53;4.10;;;;;;;;;;10278967;28;20065;-61
2022/06/10 18:33:21;;;;;;;4.50;4.10;;;;;;;;;;10278246;28;20073;-60
2022/06/10 18:38:20;;;;;;;5.15;4.72;;;;;;;;;;10289770;28;20079;-61
2022/06/10 18:43:31;;;;;;;6.10;5.13;;;;;;;;;;10278635;28;20040;-60
2022/06/10 18:48:34;;;;;;;7.53;6.85;;;;;;;;;;10278288;28;20080;-62
2022/06/10 18:53:33;;;;;;;8.43;7.50;;;;;;;;;;10275768;28;20052;-61
2022/06/10 18:58:31;;;;;;;19.35;15.15;;;;;;;;;;10277681;28;20052;-61
2022/06/10 19:03:32;;;;;;;15.77;11.70;;;;;;;;;;10277685;28;20052;-61
2022/06/10 19:08:31;;;;;;;7.15;6.53;;;;;;;;;;10277524;28;20513;-61
2022/06/10 19:13:29;;;;;;;9.18;8.27;;;;;;;;;;10276707;28;20103;-61
2022/06/10 19:18:29;;;;;;;6.70;6.10;;;;;;;;;;10276968;28;20052;-62
2022/06/10 19:23:30;;;;;;;6.72;5.97;;;;;;;;;;10278636;28;20079;-61
2022/06/10 19:28:37;;;;;;;6.03;5.45;;;;;;;;;;10278037;28;20064;-61
2022/06/10 19:33:39;;;;;;;6.28;5.68;;;;;;;;;;10276643;28;20076;-61
2022/06/10 19:38:39;;;;;;;12.80;6.20;;;;;;;;;;10271489;28;20072;-61
2022/06/10 19:48:50;;;;;;;6.88;6.38;;;;;;;;;;10271947;28;20068;-62
2022/06/10 19:53:50;;;;;;;7.90;6.43;;;;;;;;;;10273341;28;20077;-62
2022/06/10 19:58:49;;;;;;;6.32;5.78;;;;;;;;;;10276188;28;20060;-61
2022/06/10 20:03:48;;;;;;;5.82;5.13;;;;;;;;;;10278746;28;20513;-61
2022/06/10 20:08:47;;;;;;;8.05;5.93;;;;;;;;;;10283298;28;20045;-61
2022/06/10 20:13:47;;;;;;;6.68;6.07;;;;;;;;;;10284099;28;20540;-61
2022/06/10 20:18:47;;;;;;;8.38;5.82;;;;;;;;;;10284010;28;20517;-62
2022/06/10 20:23:47;;;;;;;6.10;5.60;;;;;;;;;;10282545;28;20073;-62
2022/06/10 20:28:48;;;;;;;14.60;7.28;;;;;;;;;;10283636;28;20045;-62
2022/06/10 20:33:46;;;;;;;7.07;5.97;;;;;;;;;;10283533;28;20463;-61
2022/06/10 20:38:45;;;;;;;7.32;6.30;;;;;;;;;;10282206;28;20064;-61
2022/06/10 20:43:44;;;;;;;8.02;6.50;;;;;;;;;;10283013;28;20040;-61
2022/06/10 20:48:46;;;;;;;8.75;7.13;;;;;;;;;;10282903;28;20041;-61
2022/06/10 20:53:44;;;;;;;8.05;7.03;;;;;;;;;;10282559;28;20088;-60
2022/06/10 20:58:43;;;;;;;7.70;6.90;;;;;;;;;;10282502;28;20072;-61
2022/06/10 21:07:27;;;;;;;7.82;7.05;;;;;;;;;;10282325;28;20072;-62
2022/06/10 21:09:04;;;;;;;8.43;7.57;;;;;;;;;;10282173;28;20044;-60
2022/06/10 21:14:03;;;;;;;8.65;7.18;;;;;;;;;;10281752;28;20084;-62
2022/06/10 21:19:01;;;;;;;7.32;6.38;;;;;;;;;;10281878;28;20045;-61
2022/06/10 21:24:02;;;;;;;8.00;6.95;;;;;;;;;;10280623;28;20513;-61
2022/06/10 21:29:03;;;;;;;7.20;6.50;;;;;;;;;;10281642;28;20254;-62
2022/06/10 21:34:03;;;;;;;6.93;6.38;;;;;;;;;;10281337;28;20490;-63
2022/06/10 21:39:03;;;;;;;8.02;6.82;;;;;;;;;;10281114;28;20060;-61
2022/06/10 21:44:12;;;;;;;7.40;6.53;;;;;;;;;;10280908;28;20048;-62
2022/06/10 21:49:11;;;;;;;6.88;6.28;;;;;;;;;;10279775;28;20072;-62
2022/06/10 21:54:13;;;;;;;9.20;6.80;;;;;;;;;;10279390;28;20044;-61
2022/06/10 21:59:16;;;;;;;7.75;7.05;;;;;;;;;;10278113;28;20052;-63
2022/06/10 22:04:17;;;;;;;8.35;7.65;;;;;;;;;;10279042;28;20041;-62
2022/06/10 22:09:17;;;;;;;9.32;8.52;;;;;;;;;;10279157;28;20072;-62
2022/06/10 22:14:17;;;;;;;9.35;8.55;;;;;;;;;;10278375;28;20083;-62
2022/06/10 22:19:18;;;;;;;10.32;9.48;;;;;;;;;;10278552;28;20053;-62
2022/06/10 22:24:18;;;;;;;11.10;9.93;;;;;;;;;;10278499;28;20437;-62
2022/06/10 22:29:19;;;;;;;10.65;9.75;;;;;;;;;;10277377;28;20037;-61
2022/06/10 22:34:20;;;;;;;10.52;9.60;;;;;;;;;;10277691;28;20080;-61
2022/06/10 22:39:19;;;;;;;11.40;10.20;;;;;;;;;;10278082;28;20051;-61
2022/06/10 22:44:39;;;;;;;12.13;10.93;;;;;;;;;;10277629;28;20045;-59
2022/06/10 22:49:38;;;;;;;12.13;11.10;;;;;;;;;;10277345;28;20474;-62
2022/06/10 22:54:37;;;;;;;12.18;11.02;;;;;;;;;;10277354;28;20080;-62
2022/06/10 22:59:35;;;;;;;12.27;11.07;;;;;;;;;;10276751;28;20509;-61
2022/06/10 23:15:07;;;;;;;13.88;12.50;;;;;;;;;;10276588;28;20525;-61
2022/06/10 23:20:14;;;;;;;11.65;10.60;;;;;;;;;;10275850;28;20057;-61
2022/06/10 23:25:16;;;;;;;12.88;11.63;;;;;;;;;;10276830;28;20084;-62
2022/06/10 23:30:15;;;;;;;11.77;10.77;;;;;;;;;;10276396;28;20052;-62
2022/06/10 23:35:16;;;;;;;11.30;10.18;;;;;;;;;;10275984;28;20084;-61
2022/06/10 23:40:17;;;;;;;11.90;9.73;;;;;;;;;;10274967;28;20482;-61
2022/06/10 23:45:16;;;;;;;10.80;9.80;;;;;;;;;;10275744;28;20037;-62
2022/06/10 23:50:26;;;;;;;11.23;10.13;;;;;;;;;;10276040;28;20068;-61
